createdAt,value
2019-01-14T00:00:27.966Z,4.20
2019-01-14T00:01:27.869Z,5.30
2019-01-14T00:02:27.782Z,4.70
2019-01-14T00:03:27.663Z,4.10
2019-01-14T00:04:27.557Z,5.90
2019-01-14T00:05:27.455Z,4.40
2019-01-14T00:06:27.455Z,5.00
2019-01-14T00:07:27.265Z,5.10
2019-01-14T00:08:27.146Z,4.60
2019-01-14T00:09:31.074Z,4.10
2019-01-14T00:10:26.947Z,5.00
2019-01-14T00:11:26.844Z,5.30
2019-01-14T00:12:26.755Z,4.20
2019-01-14T00:13:26.641Z,5.60
2019-01-14T00:14:26.541Z,4.60
2019-01-14T00:15:26.438Z,5.10
2019-01-14T00:16:26.335Z,4.80
2019-01-14T00:17:26.247Z,4.10
2019-01-14T00:18:26.135Z,4.60
2019-01-14T00:19:26.024Z,4.70
2019-01-14T00:20:26.025Z,3.30
2019-01-14T00:21:25.826Z,3.20
2019-01-14T00:22:25.739Z,3.80
2019-01-14T00:23:25.618Z,3.10
2019-01-14T00:24:25.519Z,3.60
2019-01-14T00:25:25.417Z,4.60
2019-01-14T00:26:25.312Z,3.40
2019-01-14T00:27:25.233Z,4.20
2019-01-14T00:28:25.420Z,2.60
2019-01-14T00:29:25.009Z,3.90
2019-01-14T00:30:24.906Z,3.20
2019-01-14T00:31:24.801Z,3.70
2019-01-14T00:32:24.717Z,4.20
2019-01-14T00:33:24.613Z,3.10
2019-01-14T00:34:24.497Z,3.20
2019-01-14T00:35:24.498Z,3.30
2019-01-14T00:36:24.296Z,3.70
2019-01-14T00:37:24.209Z,4.20
2019-01-14T00:38:24.089Z,3.40
2019-01-14T00:39:23.988Z,3.20
2019-01-14T00:40:23.883Z,3.60
2019-01-14T00:41:23.783Z,3.00
2019-01-14T00:42:23.801Z,4.40
2019-01-14T00:43:23.578Z,4.60
2019-01-14T00:44:23.481Z,5.70
2019-01-14T00:45:23.377Z,3.60
2019-01-14T00:46:23.275Z,3.70
2019-01-14T00:47:23.189Z,4.90
2019-01-14T00:48:23.067Z,5.20
2019-01-14T00:49:23.075Z,4.70
2019-01-14T00:50:22.864Z,3.20
2019-01-14T00:51:22.767Z,4.70
2019-01-14T00:52:22.682Z,4.00
2019-01-14T00:53:22.562Z,4.10
2019-01-14T00:54:22.461Z,3.30
2019-01-14T00:55:22.355Z,3.10
2019-01-14T00:56:22.372Z,5.60
2019-01-14T00:57:22.172Z,3.10
2019-01-14T00:58:22.054Z,3.70
2019-01-14T00:59:21.952Z,5.00
2019-01-14T01:00:21.846Z,3.60
2019-01-14T01:01:21.744Z,3.70
2019-01-14T01:02:21.662Z,4.20
2019-01-14T01:03:21.643Z,3.30
2019-01-14T01:04:21.441Z,3.60
2019-01-14T01:05:21.339Z,4.20
2019-01-14T01:06:24.811Z,4.20
2019-01-14T01:07:21.150Z,2.90
2019-01-14T01:08:21.034Z,3.50
2019-01-14T01:09:20.932Z,4.40
2019-01-14T01:10:20.937Z,4.20
2019-01-14T01:11:20.725Z,3.90
2019-01-14T01:12:20.638Z,4.10
2019-01-14T01:13:20.524Z,2.60
2019-01-14T01:14:20.422Z,3.70
2019-01-14T01:15:20.321Z,4.60
2019-01-14T01:16:20.220Z,3.80
2019-01-14T01:17:20.231Z,4.60
2019-01-14T01:18:20.012Z,4.40
2019-01-14T01:19:19.912Z,4.70
2019-01-14T01:20:19.810Z,5.20
2019-01-14T01:21:19.710Z,3.20
2019-01-14T01:22:19.621Z,4.10
2019-01-14T01:23:19.503Z,4.20
2019-01-14T01:24:19.526Z,4.20
2019-01-14T01:25:19.299Z,3.20
2019-01-14T01:26:19.197Z,4.40
2019-01-14T01:27:19.101Z,5.60
2019-01-14T01:28:19.013Z,3.70
2019-01-14T01:29:18.899Z,3.90
2019-01-14T01:30:18.920Z,4.20
2019-01-14T01:31:18.690Z,5.10
2019-01-14T01:32:18.588Z,5.70
2019-01-14T01:33:18.504Z,5.50
2019-01-14T01:34:18.416Z,2.70
2019-01-14T01:35:18.283Z,4.60
2019-01-14T01:36:18.180Z,4.50
2019-01-14T01:37:18.083Z,3.70
2019-01-14T01:38:17.996Z,2.90
2019-01-14T01:39:17.873Z,3.80
2019-01-14T01:40:17.775Z,3.50
2019-01-14T01:41:17.675Z,3.70
2019-01-14T01:42:17.571Z,4.10
2019-01-14T01:43:17.483Z,3.60
2019-01-14T01:44:17.363Z,4.10
2019-01-14T01:45:17.265Z,3.30
2019-01-14T01:46:17.164Z,3.70
2019-01-14T01:47:17.063Z,3.20
2019-01-14T01:48:16.976Z,3.80
2019-01-14T01:49:16.860Z,3.10
2019-01-14T01:50:16.753Z,1.90
2019-01-14T01:51:16.648Z,3.70
2019-01-14T01:52:16.550Z,4.10
2019-01-14T01:53:16.468Z,3.10
2019-01-14T01:54:16.344Z,4.70
2019-01-14T01:55:16.246Z,3.50
2019-01-14T01:56:16.140Z,3.20
2019-01-14T01:57:16.042Z,3.10
2019-01-14T01:58:15.953Z,3.10
2019-01-14T01:59:15.834Z,4.10
2019-01-14T02:00:15.778Z,4.20
2019-01-14T02:01:15.635Z,2.40
2019-01-14T02:02:15.534Z,5.50
2019-01-14T02:03:15.443Z,2.70
2019-01-14T02:04:15.324Z,3.70
2019-01-14T02:05:15.227Z,4.10
2019-01-14T02:06:15.126Z,3.90
2019-01-14T02:07:15.025Z,3.60
2019-01-14T02:08:14.935Z,3.70
2019-01-14T02:09:14.818Z,2.50
2019-01-14T02:10:14.715Z,3.60
2019-01-14T02:11:14.613Z,3.80
2019-01-14T02:12:14.508Z,4.00
2019-01-14T02:13:14.425Z,5.60
2019-01-14T02:14:14.307Z,2.70
2019-01-14T02:15:14.207Z,3.30
2019-01-14T02:16:14.105Z,3.60
2019-01-14T02:17:14.004Z,3.50
2019-01-14T02:18:13.914Z,4.10
2019-01-14T02:19:13.795Z,3.80
2019-01-14T02:20:13.694Z,4.50
2019-01-14T02:21:13.598Z,3.30
2019-01-14T02:22:13.491Z,3.00
2019-01-14T02:23:13.409Z,4.50
2019-01-14T02:24:13.290Z,3.90
2019-01-14T02:25:13.184Z,3.50
2019-01-14T02:26:13.082Z,3.30
2019-01-14T02:27:12.980Z,4.40
2019-01-14T02:28:12.893Z,3.30
2019-01-14T02:29:12.778Z,3.70
2019-01-14T02:30:12.681Z,3.00
2019-01-14T02:31:12.572Z,2.80
2019-01-14T02:32:12.470Z,4.40
2019-01-14T02:33:12.394Z,3.20
2019-01-14T02:34:12.269Z,5.00
2019-01-14T02:35:12.167Z,3.40
2019-01-14T02:36:12.065Z,3.00
2019-01-14T02:37:11.988Z,3.00
2019-01-14T02:38:11.883Z,2.90
2019-01-14T02:39:11.773Z,4.70
2019-01-14T02:40:11.658Z,2.40
2019-01-14T02:41:11.554Z,3.40
2019-01-14T02:42:11.457Z,2.60
2019-01-14T02:43:11.368Z,2.30
2019-01-14T02:44:11.247Z,2.70
2019-01-14T02:45:11.147Z,2.40
2019-01-14T02:46:11.047Z,2.60
2019-01-14T02:47:11.055Z,3.10
2019-01-14T02:48:10.864Z,2.30
2019-01-14T02:49:10.761Z,2.50
2019-01-14T02:50:10.638Z,2.40
2019-01-14T02:51:10.536Z,2.90
2019-01-14T02:52:10.431Z,2.90
2019-01-14T02:53:10.350Z,4.00
2019-01-14T02:54:10.333Z,2.80
2019-01-14T02:55:10.124Z,1.50
2019-01-14T02:56:10.025Z,2.60
2019-01-14T02:57:09.924Z,1.90
2019-01-14T02:58:09.835Z,2.80
2019-01-14T02:59:09.719Z,2.30
2019-01-14T03:00:09.615Z,4.00
2019-01-14T03:01:09.613Z,3.60
2019-01-14T03:02:09.410Z,1.60
2019-01-14T03:03:09.326Z,2.20
2019-01-14T03:04:09.205Z,2.90
2019-01-14T03:05:09.108Z,2.80
2019-01-14T03:06:09.004Z,2.90
2019-01-14T03:07:08.904Z,3.20
2019-01-14T03:08:08.918Z,3.40
2019-01-14T03:09:08.701Z,3.40
2019-01-14T03:10:08.592Z,3.70
2019-01-14T03:11:08.493Z,3.40
2019-01-14T03:12:08.389Z,3.80
2019-01-14T03:13:08.287Z,3.70
2019-01-14T03:14:08.199Z,4.50
2019-01-14T03:15:08.177Z,5.20
2019-01-14T03:16:07.979Z,3.10
2019-01-14T03:17:07.877Z,5.00
2019-01-14T03:18:07.778Z,4.30
2019-01-14T03:19:07.691Z,5.50
2019-01-14T03:20:07.570Z,4.00
2019-01-14T03:21:07.468Z,5.80
2019-01-14T03:22:07.530Z,3.50
2019-01-14T03:23:07.264Z,4.90
2019-01-14T03:24:07.172Z,5.80
2019-01-14T03:25:07.069Z,5.60
2019-01-14T03:26:06.956Z,6.10
2019-01-14T03:27:06.851Z,5.90
2019-01-14T03:28:06.748Z,5.70
2019-01-14T03:29:06.763Z,5.50
2019-01-14T03:30:06.546Z,7.40
2019-01-14T03:31:06.439Z,6.70
2019-01-14T03:32:06.336Z,6.40
2019-01-14T03:33:06.235Z,7.60
2019-01-14T03:34:06.150Z,7.30
2019-01-14T03:35:06.060Z,8.20
2019-01-14T03:36:06.028Z,8.80
2019-01-14T03:37:05.842Z,7.80
2019-01-14T03:38:05.722Z,6.30
2019-01-14T03:39:05.632Z,9.50
2019-01-14T03:40:05.520Z,8.30
2019-01-14T03:41:05.425Z,7.30
2019-01-14T03:42:05.309Z,8.00
2019-01-14T03:43:05.315Z,9.50
2019-01-14T03:44:05.144Z,8.60
2019-01-14T03:45:05.001Z,7.80
2019-01-14T03:46:04.902Z,7.40
2019-01-14T03:47:04.795Z,8.30
2019-01-14T03:48:04.695Z,7.90
2019-01-14T03:49:04.606Z,8.30
2019-01-14T03:50:04.589Z,5.80
2019-01-14T03:51:04.393Z,5.90
2019-01-14T03:52:04.282Z,6.30
2019-01-14T03:53:04.178Z,7.10
2019-01-14T03:54:04.099Z,7.40
2019-01-14T03:55:03.977Z,9.20
2019-01-14T03:56:03.874Z,6.70
2019-01-14T03:57:03.875Z,10.20
2019-01-14T03:58:03.671Z,6.90
2019-01-14T03:59:03.579Z,6.90
2019-01-14T04:00:03.461Z,5.30
2019-01-14T04:01:03.359Z,7.00
2019-01-14T04:02:03.263Z,6.60
2019-01-14T04:03:03.157Z,8.60
2019-01-14T04:04:03.170Z,6.80
2019-01-14T04:05:02.951Z,6.20
2019-01-14T04:06:02.848Z,7.10
2019-01-14T04:07:02.750Z,5.90
2019-01-14T04:08:02.645Z,7.00
2019-01-14T04:09:02.557Z,6.90
2019-01-14T04:10:02.448Z,6.50
2019-01-14T04:11:02.437Z,10.90
2019-01-14T04:12:02.239Z,6.00
2019-01-14T04:13:02.135Z,7.00
2019-01-14T04:14:02.041Z,7.00
2019-01-14T04:15:01.926Z,9.60
2019-01-14T04:16:01.823Z,4.70
2019-01-14T04:17:01.843Z,6.30
2019-01-14T04:18:01.622Z,8.20
2019-01-14T04:19:01.528Z,6.30
2019-01-14T04:20:01.420Z,8.10
2019-01-14T04:21:01.320Z,7.50
2019-01-14T04:22:01.208Z,8.00
2019-01-14T04:23:01.433Z,7.80
2019-01-14T04:24:01.017Z,5.40
2019-01-14T04:25:00.898Z,7.00
2019-01-14T04:26:00.796Z,5.50
2019-01-14T04:27:00.689Z,7.30
2019-01-14T04:28:00.592Z,7.40
2019-01-14T04:29:02.404Z,6.70
2019-01-14T04:30:00.385Z,5.70
2019-01-14T04:31:00.283Z,5.80
2019-01-14T04:32:00.177Z,5.90
2019-01-14T04:33:00.076Z,6.50
2019-01-14T04:33:59.990Z,6.90
2019-01-14T04:34:59.871Z,9.60
2019-01-14T04:35:59.768Z,7.50
2019-01-14T04:36:59.666Z,7.30
2019-01-14T04:37:59.566Z,7.40
2019-01-14T04:38:59.479Z,5.20
2019-01-14T04:39:59.359Z,7.80
2019-01-14T04:40:59.259Z,6.60
2019-01-14T04:41:59.159Z,7.40
2019-01-14T04:42:59.053Z,5.80
2019-01-14T04:43:58.970Z,7.50
2019-01-14T04:44:58.845Z,8.20
2019-01-14T04:45:58.748Z,7.80
2019-01-14T04:46:58.640Z,8.20
2019-01-14T04:47:58.538Z,5.20
2019-01-14T04:48:58.467Z,8.20
2019-01-14T04:49:58.332Z,13.50
2019-01-14T04:50:58.232Z,7.90
2019-01-14T04:51:58.125Z,7.70
2019-01-14T04:52:58.028Z,7.40
2019-01-14T04:53:57.942Z,7.00
2019-01-14T04:54:57.820Z,6.00
2019-01-14T04:55:57.721Z,4.90
2019-01-14T04:56:57.619Z,6.70
2019-01-14T04:57:57.516Z,5.70
2019-01-14T04:58:57.416Z,7.30
2019-01-14T04:59:57.320Z,6.90
2019-01-14T05:00:57.208Z,8.60
2019-01-14T05:01:57.107Z,7.60
2019-01-14T05:02:57.002Z,8.40
2019-01-14T05:03:56.902Z,6.80
2019-01-14T05:04:56.811Z,9.60
2019-01-14T05:05:56.699Z,8.60
2019-01-14T05:06:56.587Z,11.20
2019-01-14T05:07:56.484Z,9.20
2019-01-14T05:08:56.389Z,7.80
2019-01-14T05:09:56.295Z,9.50
2019-01-14T05:10:56.178Z,10.20
2019-01-14T05:11:56.076Z,10.70
2019-01-14T05:12:55.975Z,10.10
2019-01-14T05:13:55.875Z,9.90
2019-01-14T05:14:55.788Z,12.30
2019-01-14T05:15:55.664Z,9.90
2019-01-14T05:16:55.570Z,13.90
2019-01-14T05:17:55.460Z,9.30
2019-01-14T05:18:55.359Z,10.70
2019-01-14T05:19:55.274Z,12.90
2019-01-14T05:20:55.153Z,11.30
2019-01-14T05:21:55.051Z,12.10
2019-01-14T05:22:54.948Z,11.10
2019-01-14T05:23:54.846Z,13.20
2019-01-14T05:24:54.757Z,10.40
2019-01-14T05:25:54.661Z,12.50
2019-01-14T05:26:54.534Z,13.50
2019-01-14T05:27:54.436Z,9.50
2019-01-14T05:28:54.333Z,10.50
2019-01-14T05:29:54.245Z,13.40
2019-01-14T05:30:54.124Z,12.10
2019-01-14T05:31:54.028Z,12.20
2019-01-14T05:32:53.920Z,10.40
2019-01-14T05:33:53.815Z,11.40
2019-01-14T05:34:53.731Z,12.20
2019-01-14T05:35:53.615Z,13.00
2019-01-14T05:36:53.508Z,13.50
2019-01-14T05:37:53.410Z,13.50
2019-01-14T05:38:53.301Z,15.00
2019-01-14T05:39:53.217Z,14.60
2019-01-14T05:40:53.096Z,14.40
2019-01-14T05:41:52.997Z,11.90
2019-01-14T05:42:52.891Z,11.60
2019-01-14T05:43:52.799Z,14.40
2019-01-14T05:44:52.715Z,12.80
2019-01-14T05:45:52.588Z,14.70
2019-01-14T05:46:52.481Z,14.30
2019-01-14T05:47:52.378Z,13.30
2019-01-14T05:48:52.540Z,11.00
2019-01-14T05:49:52.193Z,14.60
2019-01-14T05:50:52.067Z,11.70
2019-01-14T05:51:51.968Z,13.10
2019-01-14T05:52:51.865Z,12.50
2019-01-14T05:53:51.780Z,14.30
2019-01-14T05:54:51.672Z,13.90
2019-01-14T05:55:51.678Z,12.40
2019-01-14T05:56:51.454Z,12.90
2019-01-14T05:57:51.356Z,12.80
2019-01-14T05:58:51.248Z,16.90
2019-01-14T05:59:51.161Z,13.20
2019-01-14T06:00:51.042Z,13.10
2019-01-14T06:01:50.939Z,10.80
2019-01-14T06:02:50.953Z,10.40
2019-01-14T06:03:50.731Z,13.50
2019-01-14T06:04:50.650Z,12.70
2019-01-14T06:05:50.530Z,15.20
2019-01-14T06:06:50.428Z,14.10
2019-01-14T06:07:50.320Z,14.50
2019-01-14T06:08:50.220Z,13.60
2019-01-14T06:09:50.234Z,13.30
2019-01-14T06:10:50.012Z,13.00
2019-01-14T06:11:49.910Z,15.70
2019-01-14T06:12:49.806Z,12.70
2019-01-14T06:13:49.706Z,12.30
2019-01-14T06:14:49.620Z,12.80
2019-01-14T06:15:49.503Z,13.80
2019-01-14T06:16:49.502Z,12.30
2019-01-14T06:17:49.296Z,13.80
2019-01-14T06:18:49.192Z,15.60
2019-01-14T06:19:49.106Z,12.90
2019-01-14T06:20:48.987Z,16.50
2019-01-14T06:21:48.885Z,13.90
2019-01-14T06:22:48.785Z,17.90
2019-01-14T06:23:48.776Z,14.50
2019-01-14T06:24:48.592Z,15.50
2019-01-14T06:25:48.469Z,16.40
2019-01-14T06:26:48.368Z,16.70
2019-01-14T06:27:48.276Z,17.70
2019-01-14T06:28:48.162Z,12.80
2019-01-14T06:29:48.075Z,14.30
2019-01-14T06:30:48.070Z,18.60
2019-01-14T06:31:47.856Z,16.20
2019-01-14T06:32:47.751Z,18.70
2019-01-14T06:33:47.650Z,19.60
2019-01-14T06:34:47.564Z,17.10
2019-01-14T06:35:47.442Z,20.30
2019-01-14T06:36:47.341Z,18.90
2019-01-14T06:37:52.226Z,15.50
2019-01-14T06:38:47.130Z,14.50
2019-01-14T06:39:47.053Z,16.30
2019-01-14T06:40:46.928Z,17.20
2019-01-14T06:41:46.824Z,18.10
2019-01-14T06:42:46.727Z,16.40
2019-01-14T06:43:46.618Z,19.70
2019-01-14T06:44:46.520Z,16.00
2019-01-14T06:45:46.430Z,13.40
2019-01-14T06:46:46.308Z,15.20
2019-01-14T06:47:46.207Z,16.10
2019-01-14T06:48:46.100Z,18.30
2019-01-14T06:49:46.004Z,17.90
2019-01-14T06:50:45.912Z,18.00
2019-01-14T06:51:45.794Z,19.90
2019-01-14T06:52:45.692Z,17.20
2019-01-14T06:53:45.588Z,19.50
2019-01-14T06:54:45.482Z,21.70
2019-01-14T06:55:45.395Z,19.90
2019-01-14T06:56:45.278Z,18.70
2019-01-14T06:57:45.174Z,17.90
2019-01-14T06:58:45.074Z,24.70
2019-01-14T06:59:44.968Z,20.10
2019-01-14T07:00:44.883Z,23.60
2019-01-14T07:01:44.759Z,20.60
2019-01-14T07:02:44.654Z,18.80
2019-01-14T07:03:44.551Z,19.50
2019-01-14T07:04:44.448Z,20.10
2019-01-14T07:05:44.357Z,17.80
2019-01-14T07:06:44.240Z,20.40
2019-01-14T07:07:44.139Z,25.70
2019-01-14T07:08:44.036Z,19.70
2019-01-14T07:09:43.931Z,23.10
2019-01-14T07:10:43.845Z,18.60
2019-01-14T07:11:43.726Z,24.00
2019-01-14T07:12:43.619Z,20.60
2019-01-14T07:13:43.520Z,19.90
2019-01-14T07:14:43.414Z,21.80
2019-01-14T07:15:43.326Z,21.50
2019-01-14T07:16:43.220Z,20.20
2019-01-14T07:17:43.104Z,21.90
2019-01-14T07:18:43.000Z,17.00
2019-01-14T07:19:42.895Z,18.10
2019-01-14T07:20:42.809Z,20.80
2019-01-14T07:21:42.691Z,18.90
2019-01-14T07:22:42.587Z,20.90
2019-01-14T07:23:42.489Z,20.30
2019-01-14T07:24:42.379Z,19.20
2019-01-14T07:25:42.288Z,21.50
2019-01-14T07:26:42.171Z,21.90
2019-01-14T07:27:42.070Z,21.10
2019-01-14T07:28:41.963Z,18.30
2019-01-14T07:29:41.861Z,23.40
2019-01-14T07:30:41.774Z,23.20
2019-01-14T07:31:41.652Z,19.40
2019-01-14T07:32:41.551Z,23.30
2019-01-14T07:33:41.448Z,22.30
2019-01-14T07:34:41.343Z,20.70
2019-01-14T07:35:41.269Z,19.80
2019-01-14T07:36:41.135Z,19.10
2019-01-14T07:37:41.031Z,19.90
2019-01-14T07:38:40.930Z,21.90
2019-01-14T07:39:40.828Z,19.90
2019-01-14T07:40:40.734Z,19.40
2019-01-14T07:41:40.621Z,17.60
2019-01-14T07:42:40.517Z,18.70
2019-01-14T07:43:40.410Z,20.60
2019-01-14T07:44:40.327Z,18.50
2019-01-14T07:45:40.220Z,20.30
2019-01-14T07:46:40.099Z,18.20
2019-01-14T07:47:39.999Z,20.60
2019-01-14T07:48:39.895Z,17.70
2019-01-14T07:49:39.792Z,18.70
2019-01-14T07:50:39.705Z,20.20
2019-01-14T07:51:39.586Z,17.70
2019-01-14T07:52:39.483Z,20.70
2019-01-14T07:53:39.388Z,17.20
2019-01-14T07:54:39.277Z,18.70
2019-01-14T07:55:39.190Z,20.10
2019-01-14T07:56:39.070Z,21.20
2019-01-14T07:57:38.966Z,16.70
2019-01-14T07:58:38.863Z,15.40
2019-01-14T07:59:38.758Z,18.50
2019-01-14T08:00:38.670Z,17.00
2019-01-14T08:01:38.553Z,18.50
2019-01-14T08:02:38.449Z,18.50
2019-01-14T08:03:38.346Z,18.00
2019-01-14T08:04:38.246Z,17.70
2019-01-14T08:05:38.158Z,16.40
2019-01-14T08:06:38.039Z,17.00
2019-01-14T08:07:37.937Z,18.90
2019-01-14T08:08:37.829Z,18.90
2019-01-14T08:09:37.728Z,18.30
2019-01-14T08:10:37.644Z,19.80
2019-01-14T08:11:37.526Z,23.50
2019-01-14T08:12:37.424Z,16.80
2019-01-14T08:13:37.319Z,27.80
2019-01-14T08:14:37.214Z,28.50
2019-01-14T08:15:37.126Z,20.10
2019-01-14T08:16:37.007Z,22.50
2019-01-14T08:17:36.904Z,23.20
2019-01-14T08:18:36.802Z,17.90
2019-01-14T08:19:36.701Z,25.10
2019-01-14T08:20:36.612Z,23.70
2019-01-14T08:21:36.612Z,22.90
2019-01-14T08:22:36.396Z,17.80
2019-01-14T08:23:36.291Z,17.00
2019-01-14T08:24:36.185Z,19.70
2019-01-14T08:25:37.502Z,19.30
2019-01-14T08:26:35.980Z,22.50
2019-01-14T08:27:35.917Z,21.20
2019-01-14T08:28:35.875Z,17.20
2019-01-14T08:29:35.674Z,17.40
2019-01-14T08:30:35.574Z,19.20
2019-01-14T08:31:35.480Z,20.50
2019-01-14T08:32:35.369Z,19.80
2019-01-14T08:33:35.269Z,19.60
2019-01-14T08:34:35.156Z,18.00
2019-01-14T08:35:35.158Z,19.70
2019-01-14T08:36:34.969Z,18.80
2019-01-14T08:37:34.852Z,18.00
2019-01-14T08:38:34.746Z,19.30
2019-01-14T08:39:34.647Z,18.90
2019-01-14T08:40:34.548Z,18.80
2019-01-14T08:41:34.458Z,16.10
2019-01-14T08:42:34.441Z,16.50
2019-01-14T08:43:34.236Z,15.40
2019-01-14T08:44:34.131Z,20.50
2019-01-14T08:45:34.030Z,17.70
2019-01-14T08:46:33.942Z,16.50
2019-01-14T08:47:33.821Z,19.60
2019-01-14T08:48:33.725Z,14.30
2019-01-14T08:49:33.738Z,15.40
2019-01-14T08:50:33.516Z,13.50
2019-01-14T08:51:33.433Z,17.40
2019-01-14T08:52:33.308Z,17.70
2019-01-14T08:53:34.187Z,17.00
2019-01-14T08:54:33.106Z,17.60
2019-01-14T08:55:33.007Z,16.00
2019-01-14T08:56:33.021Z,15.50
2019-01-14T08:57:32.795Z,17.30
2019-01-14T08:58:32.692Z,14.80
2019-01-14T08:59:32.591Z,16.80
2019-01-14T09:00:32.494Z,14.70
2019-01-14T09:01:32.402Z,15.50
2019-01-14T09:02:32.297Z,13.50
2019-01-14T09:03:32.278Z,12.80
2019-01-14T09:04:32.446Z,19.60
2019-01-14T09:05:31.973Z,15.60
2019-01-14T09:06:31.893Z,14.90
2019-01-14T09:07:31.767Z,15.70
2019-01-14T09:08:31.665Z,14.20
2019-01-14T09:09:31.564Z,15.20
2019-01-14T09:10:31.559Z,16.10
2019-01-14T09:11:31.373Z,17.80
2019-01-14T09:12:31.254Z,17.10
2019-01-14T09:13:31.155Z,12.90
2019-01-14T09:14:31.051Z,15.30
2019-01-14T09:15:30.949Z,16.20
2019-01-14T09:16:30.863Z,17.50
2019-01-14T09:17:30.862Z,17.00
2019-01-14T09:18:30.637Z,17.00
2019-01-14T09:19:30.537Z,14.30
2019-01-14T09:20:30.436Z,17.80
2019-01-14T09:21:30.350Z,18.00
2019-01-14T09:22:30.228Z,15.00
2019-01-14T09:23:30.176Z,15.50
2019-01-14T09:24:30.131Z,14.60
2019-01-14T09:25:29.920Z,16.20
2019-01-14T09:26:29.836Z,18.80
2019-01-14T09:27:29.714Z,16.40
2019-01-14T09:28:29.616Z,15.60
2019-01-14T09:29:29.511Z,15.90
2019-01-14T09:30:29.536Z,17.90
2019-01-14T09:31:29.320Z,17.60
2019-01-14T09:32:29.204Z,15.70
2019-01-14T09:33:29.103Z,17.50
2019-01-14T09:34:28.998Z,19.30
2019-01-14T09:35:28.896Z,19.70
2019-01-14T09:36:28.809Z,20.60
2019-01-14T09:37:28.688Z,17.60
2019-01-14T09:38:35.606Z,16.80
2019-01-14T09:39:28.483Z,17.90
2019-01-14T09:40:28.383Z,18.40
2019-01-14T09:41:28.297Z,19.50
2019-01-14T09:42:28.180Z,24.40
2019-01-14T09:43:28.074Z,19.20
2019-01-14T09:44:27.972Z,19.60
2019-01-14T09:45:27.871Z,21.00
2019-01-14T09:46:27.784Z,21.50
2019-01-14T09:47:27.665Z,16.90
2019-01-14T09:48:27.560Z,19.60
2019-01-14T09:49:27.457Z,19.00
2019-01-14T09:50:27.354Z,20.10
2019-01-14T09:51:27.272Z,22.00
2019-01-14T09:52:28.478Z,21.40
2019-01-14T09:53:27.044Z,21.60
2019-01-14T09:54:26.943Z,20.30
2019-01-14T09:55:26.841Z,19.00
2019-01-14T09:56:26.762Z,21.00
2019-01-14T09:57:26.632Z,22.80
2019-01-14T09:58:26.535Z,19.70
2019-01-14T09:59:26.427Z,19.90
2019-01-14T10:00:26.325Z,21.70
2019-01-14T10:01:26.239Z,20.10
2019-01-14T10:02:26.126Z,20.00
2019-01-14T10:03:26.016Z,17.20
2019-01-14T10:04:25.920Z,22.40
2019-01-14T10:05:25.812Z,18.80
2019-01-14T10:06:25.726Z,20.40
2019-01-14T10:07:25.614Z,18.80
2019-01-14T10:08:25.561Z,20.20
2019-01-14T10:09:25.402Z,20.60
2019-01-14T10:10:25.299Z,21.20
2019-01-14T10:11:25.205Z,19.80
2019-01-14T10:12:25.126Z,19.30
2019-01-14T10:13:24.994Z,19.30
2019-01-14T10:14:24.888Z,19.60
2019-01-14T10:15:24.788Z,21.80
2019-01-14T10:16:24.687Z,24.60
2019-01-14T10:17:24.601Z,21.40
2019-01-14T10:18:24.478Z,23.60
2019-01-14T10:19:24.377Z,21.20
2019-01-14T10:20:24.275Z,18.00
2019-01-14T10:21:24.176Z,17.90
2019-01-14T10:22:24.089Z,16.60
2019-01-14T10:23:23.968Z,19.30
2019-01-14T10:24:23.866Z,20.70
2019-01-14T10:25:23.769Z,20.70
2019-01-14T10:26:23.665Z,20.40
2019-01-14T10:27:23.577Z,17.90
2019-01-14T10:28:23.459Z,18.60
2019-01-14T10:29:23.353Z,22.70
2019-01-14T10:30:23.252Z,19.70
2019-01-14T10:31:23.153Z,19.30
2019-01-14T10:32:23.063Z,18.10
2019-01-14T10:33:22.946Z,17.40
2019-01-14T10:34:22.840Z,20.40
2019-01-14T10:35:22.745Z,18.30
2019-01-14T10:36:22.640Z,15.70
2019-01-14T10:37:22.894Z,18.30
2019-01-14T10:38:22.453Z,17.30
2019-01-14T10:39:22.332Z,16.30
2019-01-14T10:40:22.270Z,16.90
2019-01-14T10:41:22.124Z,16.30
2019-01-14T10:42:22.043Z,19.40
2019-01-14T10:43:21.919Z,18.00
2019-01-14T10:44:21.823Z,19.90
2019-01-14T10:45:21.715Z,17.40
2019-01-14T10:46:21.614Z,16.30
2019-01-14T10:47:21.532Z,19.50
2019-01-14T10:48:21.413Z,16.50
2019-01-14T10:49:21.307Z,14.50
2019-01-14T10:50:21.204Z,13.10
2019-01-14T10:51:21.105Z,16.20
2019-01-14T10:52:21.017Z,14.20
2019-01-14T10:53:20.902Z,12.50
2019-01-14T10:54:20.799Z,14.80
2019-01-14T10:55:20.692Z,14.10
2019-01-14T10:56:20.592Z,12.60
2019-01-14T10:57:21.749Z,15.70
2019-01-14T10:58:20.386Z,16.30
2019-01-14T10:59:20.285Z,17.90
2019-01-14T11:00:20.181Z,13.50
2019-01-14T11:01:20.075Z,12.60
2019-01-14T11:02:19.990Z,16.90
2019-01-14T11:03:19.879Z,10.90
2019-01-14T11:04:19.774Z,13.50
2019-01-14T11:05:19.666Z,11.50
2019-01-14T11:06:19.566Z,14.20
2019-01-14T11:07:19.481Z,13.40
2019-01-14T11:08:19.376Z,12.10
2019-01-14T11:09:19.262Z,13.30
2019-01-14T11:10:19.153Z,13.70
2019-01-14T11:11:19.052Z,15.00
2019-01-14T11:12:18.969Z,14.50
2019-01-14T11:13:18.850Z,16.50
2019-01-14T11:14:18.748Z,11.50
2019-01-14T11:15:18.645Z,13.40
2019-01-14T11:16:18.545Z,14.40
2019-01-14T11:17:18.460Z,16.10
2019-01-14T11:18:18.337Z,13.70
2019-01-14T11:19:18.237Z,13.70
2019-01-14T11:20:18.130Z,14.40
2019-01-14T11:21:18.028Z,15.50
2019-01-14T11:22:17.946Z,12.40
2019-01-14T11:23:18.125Z,12.00
2019-01-14T11:24:17.725Z,11.80
2019-01-14T11:25:17.620Z,14.80
2019-01-14T11:26:17.521Z,10.60
2019-01-14T11:27:17.430Z,12.10
2019-01-14T11:28:17.313Z,14.70
2019-01-14T11:29:17.214Z,12.70
2019-01-14T11:30:17.210Z,11.60
2019-01-14T11:31:17.008Z,10.80
2019-01-14T11:32:16.923Z,12.90
2019-01-14T11:33:16.803Z,10.90
2019-01-14T11:34:16.700Z,13.30
2019-01-14T11:35:16.603Z,13.80
2019-01-14T11:36:16.499Z,9.70
2019-01-14T11:37:16.513Z,12.00
2019-01-14T11:38:16.295Z,15.20
2019-01-14T11:39:16.194Z,11.30
2019-01-14T11:40:16.092Z,13.10
2019-01-14T11:41:15.986Z,14.40
2019-01-14T11:42:17.465Z,10.90
2019-01-14T11:43:15.787Z,12.60
2019-01-14T11:44:15.784Z,13.10
2019-01-14T11:45:15.578Z,14.70
2019-01-14T11:46:15.476Z,14.10
2019-01-14T11:47:15.391Z,12.60
2019-01-14T11:48:15.275Z,11.70
2019-01-14T11:49:15.175Z,11.90
2019-01-14T11:50:15.069Z,12.50
2019-01-14T11:51:15.069Z,16.50
2019-01-14T11:52:14.882Z,14.00
2019-01-14T11:53:14.763Z,13.10
2019-01-14T11:54:14.664Z,13.00
2019-01-14T11:55:14.579Z,15.00
2019-01-14T11:56:14.459Z,13.20
2019-01-14T11:57:14.364Z,11.40
2019-01-14T11:58:14.371Z,10.90
2019-01-14T11:59:14.149Z,12.40
2019-01-14T12:00:14.048Z,11.20
2019-01-14T12:01:13.951Z,13.30
2019-01-14T12:02:13.845Z,13.20
2019-01-14T12:03:13.755Z,13.50
2019-01-14T12:04:13.652Z,12.30
2019-01-14T12:05:13.640Z,9.70
2019-01-14T12:06:13.435Z,11.60
2019-01-14T12:07:13.337Z,8.10
2019-01-14T12:08:13.250Z,6.80
2019-01-14T12:09:13.128Z,8.20
2019-01-14T12:10:13.029Z,9.20
2019-01-14T12:11:12.926Z,8.60
2019-01-14T12:12:12.931Z,7.80
2019-01-14T12:13:12.740Z,7.30
2019-01-14T12:14:12.619Z,9.50
2019-01-14T12:15:12.517Z,8.30
2019-01-14T12:16:12.411Z,6.60
2019-01-14T12:17:12.311Z,6.80
2019-01-14T12:18:12.332Z,7.10
2019-01-14T12:19:12.107Z,7.60
2019-01-14T12:20:12.003Z,7.10
2019-01-14T12:21:11.900Z,8.10
2019-01-14T12:22:11.799Z,6.30
2019-01-14T12:23:11.716Z,8.20
2019-01-14T12:24:11.602Z,7.70
2019-01-14T12:25:11.498Z,6.20
2019-01-14T12:26:11.389Z,6.10
2019-01-14T12:27:11.290Z,8.50
2019-01-14T12:28:11.204Z,6.00
2019-01-14T12:29:11.085Z,6.30
2019-01-14T12:30:10.981Z,6.40
2019-01-14T12:31:10.881Z,5.40
2019-01-14T12:32:10.781Z,7.80
2019-01-14T12:33:10.693Z,6.60
2019-01-14T12:34:10.579Z,7.20
2019-01-14T12:35:10.477Z,7.10
2019-01-14T12:36:10.375Z,5.70
2019-01-14T12:37:10.275Z,4.90
2019-01-14T12:38:10.188Z,4.70
2019-01-14T12:39:10.065Z,6.40
2019-01-14T12:40:09.965Z,6.30
2019-01-14T12:41:09.863Z,7.40
2019-01-14T12:42:09.787Z,4.20
2019-01-14T12:43:09.679Z,6.20
2019-01-14T12:44:09.565Z,6.50
2019-01-14T12:45:09.457Z,5.50
2019-01-14T12:46:09.358Z,6.50
2019-01-14T12:47:09.254Z,5.30
2019-01-14T12:48:09.171Z,5.50
2019-01-14T12:49:09.056Z,6.90
2019-01-14T12:50:08.951Z,5.00
2019-01-14T12:51:08.853Z,4.80
2019-01-14T12:52:08.747Z,9.00
2019-01-14T12:53:08.663Z,7.50
2019-01-14T12:54:08.550Z,7.10
2019-01-14T12:55:08.441Z,8.30
2019-01-14T12:56:08.342Z,7.40
2019-01-14T12:57:08.241Z,6.50
2019-01-14T12:58:08.153Z,5.50
2019-01-14T12:59:08.034Z,5.00
2019-01-14T13:00:07.934Z,4.90
2019-01-14T13:01:07.832Z,6.70
2019-01-14T13:02:07.730Z,6.30
2019-01-14T13:03:07.649Z,6.00